Погода Макатубана 2 недели

Сан-Паулу, Бразилия

18 - 31 июля
  • 18июля
    Сегодня
    +15°
    +29°
    Ясно и безоблачно
    ВремяПогодаТемператураВлажностьДавлениеВетер, м/сВероятность осадков
    00:00Ясно и безоблачно+17°C85 %717 мм1.7 м/с5 %
    03:00Ясно и безоблачно+16°C83 %716 мм2.1 м/с5 %
    06:00Ясно и безоблачно+17°C87 %716 мм2.1 м/с5 %
    09:00Ясно и безоблачно+19°C73 %718 мм1.9 м/с5 %
    12:00Ясно и безоблачно+25°C43 %718 мм2.4 м/с5 %
    15:00Ясно и безоблачно+28°C33 %717 мм1.0 м/с5 %
    18:00Ясно и безоблачно+24°C55 %716 мм2.5 м/с5 %
    21:00Ясно и безоблачно+22°C63 %717 мм2.3 м/с5 %
  • 19июля
    Пятница
    +14°
    +28°
    Ясно и безоблачно
    ВремяПогодаТемператураВлажностьДавлениеВетер, м/сВероятность осадков
    00:00Ясно и безоблачно+18°C79 %718 мм3.6 м/с5 %
    03:00Небольшая облачность+16°C96 %717 мм4.3 м/с5 %
    06:00Небольшая облачность+16°C96 %718 мм4.1 м/с5 %
    09:00Практически безоблачно+17°C81 %720 мм3.7 м/с5 %
    12:00Ясно и безоблачно+24°C57 %720 мм3.4 м/с5 %
    15:00Ясно и безоблачно+27°C44 %718 мм2.8 м/с5 %
    18:00Ясно и безоблачно+23°C65 %718 мм2.2 м/с5 %
    21:00Ясно и безоблачно+21°C68 %718 мм2.4 м/с5 %
  • 20июля
    Суббота
    +13°
    +27°
    Ясно и безоблачно
    ВремяПогодаТемператураВлажностьДавлениеВетер, м/сВероятность осадков
    00:00Ясно и безоблачно+17°C70 %718 мм2.5 м/с5 %
    03:00Ясно и безоблачно+15°C85 %717 мм2.4 м/с5 %
    06:00Ясно и безоблачно+16°C92 %717 мм3.0 м/с5 %
    09:00Практически безоблачно+18°C79 %719 мм3.2 м/с5 %
    12:00Ясно и безоблачно+24°C50 %719 мм3.5 м/с5 %
    15:00Ясно и безоблачно+27°C38 %717 мм2.7 м/с5 %
    18:00Ясно и безоблачно+22°C59 %717 мм2.3 м/с5 %
    21:00Ясно и безоблачно+20°C61 %717 мм2.9 м/с5 %
  • 21июля
    Воскресенье
    +15°
    +28°
    Ясно и безоблачно
    ВремяПогодаТемператураВлажностьДавлениеВетер, м/сВероятность осадков
    00:00Ясно и безоблачно+16°C85 %717 мм4.5 м/с5 %
    03:00Ясно и безоблачно+14°C90 %716 мм4.1 м/с5 %
    06:00Ясно и безоблачно+14°C92 %716 мм4.0 м/с5 %
    09:00Ясно и безоблачно+16°C79 %718 мм3.4 м/с5 %
    12:00Ясно и безоблачно+24°C57 %718 мм2.7 м/с5 %
    15:00Ясно и безоблачно+28°C47 %716 мм1.1 м/с5 %
    18:00Ясно и безоблачно+24°C70 %716 мм2.1 м/с5 %
    21:00Ясно и безоблачно+21°C79 %716 мм2.3 м/с5 %
  • 22июля
    Понедельник
    +17°
    +29°
    Практически безоблачно
    ВремяПогодаТемператураВлажностьДавлениеВетер, м/сВероятность осадков
    00:00Ясно и безоблачно+17°C81 %716 мм2.2 м/с5 %
    03:00Ясно и безоблачно+16°C87 %716 мм2.8 м/с5 %
    06:00Ясно и безоблачно+17°C93 %717 мм2.5 м/с5 %
    09:00Ясно и безоблачно+18°C83 %719 мм2.1 м/с5 %
    12:00Небольшая облачность+26°C49 %719 мм1.5 м/с5 %
    15:00Практически безоблачно+29°C35 %717 мм0.2 м/с5 %
    18:00Ясно и безоблачно+24°C57 %717 мм2.5 м/с5 %
    21:00Ясно и безоблачно+22°C63 %718 мм2.4 м/с5 %
Мы используем cookies
Соглашаюсь